| time (UTC) | temp F | wind direction | speed MPH | gust MPH | rain 1hr in | rain 24hr in | rain mn in | humidity % | barometer mb |
| 20260902173503 | 76 | 233 | 1.0 | 3.0 | 0.00 | 0.49 | 0.49 | 91 | 1014.3 |
| 20260902173003 | 76 | 220 | 1.0 | 3.0 | 0.00 | 0.49 | 0.49 | 90 | 1014.4 |
| 20260902172503 | 76 | 203 | 1.0 | 2.0 | 0.00 | 0.49 | 0.49 | 90 | 1014.4 |
| 20260902172004 | 76 | 212 | 1.0 | 3.0 | 0.00 | 0.49 | 0.49 | 89 | 1014.2 |
| 20260902171503 | 76 | 194 | 1.0 | 3.0 | 0.00 | 0.49 | 0.49 | 89 | 1014.2 |
| 20260902171003 | 76 | 116 | 0.0 | 2.0 | 0.00 | 0.49 | 0.49 | 90 | 1014.6 |
| 20260902170503 | 77 | 94 | 0.0 | 3.0 | 0.00 | 0.49 | 0.49 | 90 | 1014.9 |
| 20260902170003 | 77 | 235 | 1.0 | 5.0 | 0.00 | 0.49 | 0.49 | 89 | 1015.3 |
| 20260902165503 | 77 | 242 | 1.0 | 5.0 | 0.00 | 0.49 | 0.49 | 89 | 1015.6 |
| 20260902165003 | 77 | 241 | 1.0 | 5.0 | 0.00 | 0.49 | 0.49 | 88 | 1015.9 |
| 20260902164717 | 78 | 243 | 1.0 | 3.0 | 0.00 | 0.49 | 0.49 | 88 | 1015.9 |
| 20260902164004 | 78 | 242 | 1.0 | 3.0 | 0.00 | 0.49 | 0.49 | 89 | 1015.3 |
| 20260902163503 | 78 | 225 | 1.0 | 3.0 | 0.00 | 0.49 | 0.49 | 89 | 1014.9 |
| 20260902163003 | 77 | 203 | 1.0 | 2.0 | 0.00 | 0.49 | 0.49 | 90 | 1014.6 |
| 20260902162503 | 77 | 181 | 0.0 | 2.0 | 0.00 | 0.49 | 0.49 | 91 | 1014.4 |
| 20260902162004 | 77 | 193 | 1.0 | 4.0 | 0.00 | 0.49 | 0.49 | 90 | 1014.3 |
| 20260902161718 | 77 | 191 | 1.0 | 4.0 | 0.00 | 0.49 | 0.49 | 90 | 1014.4 |
| 20260902161003 | 77 | 204 | 1.0 | 3.0 | 0.00 | 0.49 | 0.49 | 90 | 1014.5 |
| 20260902160503 | 77 | 175 | 1.0 | 3.0 | 0.00 | 0.49 | 0.49 | 91 | 1014.5 |
| 20260902160217 | 77 | 148 | 1.0 | 3.0 | 0.00 | 0.49 | 0.49 | 91 | 1014.4 |
| 20260902155718 | 76 | 124 | 1.0 | 5.0 | 0.00 | 0.49 | 0.49 | 92 | 1014.7 |
| 20260902155003 | 76 | 194 | 2.0 | 5.0 | 0.00 | 0.49 | 0.49 | 91 | 1014.7 |
| 20260902154503 | 76 | 209 | 2.0 | 4.0 | 0.00 | 0.49 | 0.49 | 92 | 1014.8 |
| 20260902154004 | 75 | 217 | 1.0 | 6.0 | 0.00 | 0.49 | 0.49 | 93 | 1014.7 |
| 20260902153503 | 75 | 210 | 1.0 | 6.0 | 0.00 | 0.49 | 0.49 | 94 | 1014.9 |
| 20260902153003 | 75 | 215 | 1.0 | 6.0 | 0.00 | 0.49 | 0.49 | 94 | 1014.9 |
| 20260902152503 | 74 | 226 | 2.0 | 6.0 | 0.00 | 0.49 | 0.49 | 94 | 1015.1 |
| 20260902152217 | 74 | 236 | 2.0 | 6.0 | 0.00 | 0.49 | 0.49 | 94 | 1015.0 |
| 20260902151718 | 74 | 235 | 1.0 | 5.0 | 0.00 | 0.49 | 0.49 | 95 | 1015.3 |
| 20260902151003 | 73 | 218 | 1.0 | 4.0 | 0.00 | 0.49 | 0.49 | 96 | 1015.2 |
| 20260902150503 | 73 | 220 | 1.0 | 7.0 | 0.00 | 0.49 | 0.49 | 96 | 1015.2 |
| 20260902150004 | 72 | 224 | 1.0 | 7.0 | 0.00 | 0.49 | 0.49 | 96 | 1015.3 |
| 20260902145503 | 72 | 239 | 2.0 | 8.0 | 0.00 | 0.49 | 0.49 | 97 | 1015.4 |
| 20260902145003 | 72 | 260 | 2.0 | 8.0 | 0.00 | 0.49 | 0.49 | 97 | 1015.4 |
| 20260902144503 | 71 | 262 | 1.0 | 3.0 | 0.00 | 0.49 | 0.49 | 97 | 1015.4 |
| 20260902144219 | 71 | 265 | 1.0 | 3.0 | 0.00 | 0.49 | 0.49 | 97 | 1015.5 |
| 20260902143503 | 70 | 221 | 0.0 | 2.0 | 0.00 | 0.49 | 0.49 | 97 | 1015.7 |
| 20260902143003 | 70 | 222 | 0.0 | 2.0 | 0.00 | 0.49 | 0.49 | 96 | 1015.7 |
| 20260902142503 | 70 | 226 | 0.0 | 2.0 | 0.00 | 0.49 | 0.49 | 96 | 1015.8 |
| 20260902142003 | 69 | 236 | 0.0 | 2.0 | 0.00 | 0.49 | 0.49 | 96 | 1015.9 |
| 20260902141718 | 69 | 295 | 0.0 | 2.0 | 0.00 | 0.49 | 0.49 | 96 | 1016.0 |
| 20260902141003 | 69 | 24 | 0.0 | 1.0 | 0.00 | 0.49 | 0.49 | 96 | 1016.0 |
| 20260902140503 | 69 | 24 | 0.0 | 1.0 | 0.00 | 0.49 | 0.49 | 96 | 1016.1 |
| 20260902140003 | 69 | 0 | 0.0 | 0.0 | 0.00 | 0.49 | 0.49 | 97 | 1016.0 |
| 20260902135503 | 69 | 0 | 0.0 | 0.0 | 0.00 | 0.49 | 0.49 | 96 | 1016.1 |
| 20260902135003 | 69 | 24 | 0.0 | 1.0 | 0.00 | 0.49 | 0.49 | 96 | 1016.0 |
| 20260902134503 | 69 | 22 | 0.0 | 1.0 | 0.00 | 0.49 | 0.49 | 96 | 1016.0 |
| 20260902134003 | 68 | 28 | 0.0 | 2.0 | 0.00 | 0.49 | 0.49 | 96 | 1016.0 |
| 20260902133503 | 68 | 14 | 0.0 | 2.0 | 0.00 | 0.49 | 0.49 | 96 | 1015.9 |
| 20260902133218 | 68 | 342 | 0.0 | 2.0 | 0.01 | 0.49 | 0.49 | 96 | 1015.7 |
| 20260902132503 | 68 | 252 | 0.0 | 2.0 | 0.26 | 0.49 | 0.49 | 97 | 1015.7 |
| 20260902132003 | 67 | 252 | 0.0 | 1.0 | 0.39 | 0.49 | 0.49 | 96 | 1015.8 |
| 20260902131717 | 67 | 252 | 0.0 | 1.0 | 0.43 | 0.49 | 0.49 | 96 | 1015.9 |
| 20260902131003 | 67 | 254 | 0.0 | 2.0 | 0.47 | 0.49 | 0.49 | 96 | 1016.1 |
| 20260902130717 | 67 | 255 | 0.0 | 2.0 | 0.48 | 0.49 | 0.49 | 96 | 1016.1 |
| 20260902130003 | 67 | 287 | 0.0 | 2.0 | 0.48 | 0.49 | 0.49 | 95 | 1016.4 |
| 20260902125503 | 66 | 296 | 0.0 | 2.0 | 0.48 | 0.49 | 0.49 | 95 | 1016.4 |
| 20260902125003 | 66 | 356 | 0.0 | 1.0 | 0.48 | 0.49 | 0.49 | 95 | 1016.4 |
| 20260902124503 | 67 | 9 | 0.0 | 1.0 | 0.48 | 0.49 | 0.49 | 95 | 1016.2 |
| 20260902124003 | 67 | 9 | 0.0 | 1.0 | 0.49 | 0.49 | 0.49 | 95 | 1016.6 |
| 20260902123505 | 67 | 56 | 0.0 | 2.0 | 0.49 | 0.49 | 0.49 | 94 | 1016.6 |
| 20260902123003 | 67 | 9 | 1.0 | 4.0 | 0.44 | 0.44 | 0.44 | 94 | 1016.6 |
| 20260902122503 | 68 | 21 | 2.0 | 4.0 | 0.23 | 0.23 | 0.23 | 95 | 1017.2 |
| 20260902122003 | 68 | 34 | 2.0 | 6.0 | 0.10 | 0.10 | 0.10 | 95 | 1016.7 |
| 20260902121503 | 68 | 34 | 3.0 | 8.0 | 0.04 | 0.04 | 0.04 | 95 | 1016.1 |
| 20260902121003 | 68 | 35 | 2.0 | 8.0 | 0.02 | 0.03 | 0.02 | 94 | 1015.9 |
| 20260902120503 | 69 | 39 | 1.0 | 4.0 | 0.01 | 0.02 | 0.01 | 94 | 1015.5 |
| 20260902120003 | 70 | 30 | 1.0 | 4.0 | 0.01 | 0.02 | 0.01 | 94 | 1015.7 |
| 20260902115717 | 71 | 22 | 1.0 | 4.0 | 0.01 | 0.02 | 0.01 | 94 | 1015.6 |
| 20260902115003 | 71 | 274 | 1.0 | 3.0 | 0.01 | 0.02 | 0.01 | 96 | 1015.2 |
| 20260902114503 | 71 | 240 | 0.0 | 3.0 | 0.01 | 0.02 | 0.01 | 96 | 1013.7 |
| 20260902114008 | 71 | 236 | 1.0 | 3.0 | 0.00 | 0.01 | 0.00 | 96 | 1013.7 |
| 20260902113503 | 71 | 242 | 1.0 | 2.0 | 0.00 | 0.01 | 0.00 | 96 | 1013.8 |
| 20260902113003 | 71 | 239 | 0.0 | 2.0 | 0.00 | 0.01 | 0.00 | 96 | 1013.9 |
| 20260902112503 | 71 | 215 | 0.0 | 4.0 | 0.00 | 0.01 | 0.00 | 97 | 1013.9 |
| 20260902112003 | 71 | 221 | 0.0 | 4.0 | 0.00 | 0.01 | 0.00 | 97 | 1013.7 |
| 20260902111503 | 71 | 250 | 0.0 | 2.0 | 0.00 | 0.01 | 0.00 | 97 | 1013.7 |
| 20260902111003 | 71 | 251 | 1.0 | 2.0 | 0.00 | 0.01 | 0.00 | 97 | 1013.7 |
| 20260902110503 | 71 | 260 | 0.0 | 3.0 | 0.00 | 0.01 | 0.00 | 96 | 1013.7 |
| 20260902110005 | 71 | 265 | 0.0 | 3.0 | 0.00 | 0.01 | 0.00 | 96 | 1013.6 |
| 20260902105503 | 70 | 238 | 0.0 | 3.0 | 0.00 | 0.01 | 0.00 | 96 | 1013.3 |
| 20260902105003 | 70 | 195 | 0.0 | 2.0 | 0.00 | 0.01 | 0.00 | 96 | 1013.3 |
| 20260902104718 | 70 | 195 | 0.0 | 2.0 | 0.00 | 0.01 | 0.00 | 96 | 1013.2 |
| 20260902104003 | 70 | 195 | 0.0 | 1.0 | 0.00 | 0.01 | 0.00 | 97 | 1013.0 |
| 20260902103718 | 70 | 0 | 0.0 | 0.0 | 0.00 | 0.01 | 0.00 | 97 | 1013.2 |
| 20260902103003 | 70 | 0 | 0.0 | 0.0 | 0.00 | 0.01 | 0.00 | 96 | 1013.6 |
| 20260902102503 | 70 | 195 | 0.0 | 1.0 | 0.00 | 0.01 | 0.00 | 96 | 1013.6 |
| 20260902102217 | 70 | 195 | 0.0 | 1.0 | 0.00 | 0.01 | 0.00 | 96 | 1013.6 |
| 20260902101503 | 70 | 195 | 0.0 | 1.0 | 0.00 | 0.01 | 0.00 | 96 | 1013.4 |
| 20260902101003 | 70 | 195 | 0.0 | 1.0 | 0.00 | 0.01 | 0.00 | 96 | 1013.5 |
| 20260902100503 | 70 | 0 | 0.0 | 0.0 | 0.00 | 0.01 | 0.00 | 96 | 1013.3 |
| 20260902100003 | 70 | 0 | 0.0 | 0.0 | 0.00 | 0.01 | 0.00 | 96 | 1013.1 |
| 20260902095718 | 70 | 0 | 0.0 | 0.0 | 0.00 | 0.01 | 0.00 | 96 | 1013.3 |
| 20260902095217 | 70 | 0 | 0.0 | 0.0 | 0.00 | 0.01 | 0.00 | 96 | 1013.4 |
| 20260902094503 | 70 | 0 | 0.0 | 0.0 | 0.00 | 0.01 | 0.00 | 96 | 1013.6 |
| 20260902094003 | 70 | 0 | 0.0 | 0.0 | 0.00 | 0.01 | 0.00 | 96 | 1013.7 |
| 20260902093503 | 70 | 0 | 0.0 | 0.0 | 0.00 | 0.01 | 0.00 | 96 | 1013.8 |
| 20260902093217 | 69 | 0 | 0.0 | 0.0 | 0.00 | 0.01 | 0.00 | 96 | 1014.1 |
| 20260902092503 | 69 | 0 | 0.0 | 0.0 | 0.00 | 0.01 | 0.00 | 96 | 1014.2 |
| 20260902092003 | 69 | 0 | 0.0 | 0.0 | 0.00 | 0.01 | 0.00 | 96 | 1014.3 |
| 20260902091718 | 69 | 0 | 0.0 | 0.0 | 0.00 | 0.01 | 0.00 | 96 | 1014.2 |
| 20260902091003 | 69 | 0 | 0.0 | 0.0 | 0.00 | 0.01 | 0.00 | 96 | 1014.2 |
| 20260902090503 | 69 | 0 | 0.0 | 0.0 | 0.00 | 0.01 | 0.00 | 96 | 1014.3 |
| 20260902090004 | 69 | 0 | 0.0 | 0.0 | 0.00 | 0.01 | 0.00 | 96 | 1014.4 |
| 20260902085503 | 69 | 0 | 0.0 | 0.0 | 0.00 | 0.01 | 0.00 | 96 | 1014.5 |
| 20260902085003 | 69 | 0 | 0.0 | 0.0 | 0.00 | 0.01 | 0.00 | 96 | 1014.5 |
| 20260902084718 | 69 | 0 | 0.0 | 0.0 | 0.00 | 0.01 | 0.00 | 96 | 1014.4 |
| 20260902084003 | 69 | 0 | 0.0 | 0.0 | 0.00 | 0.01 | 0.00 | 96 | 1014.3 |
| 20260902083718 | 69 | 0 | 0.0 | 0.0 | 0.00 | 0.01 | 0.00 | 95 | 1014.1 |
| 20260902083003 | 69 | 0 | 0.0 | 0.0 | 0.00 | 0.01 | 0.00 | 96 | 1014.2 |
| 20260902082503 | 69 | 0 | 0.0 | 0.0 | 0.00 | 0.01 | 0.00 | 96 | 1014.6 |
| 20260902082003 | 69 | 0 | 0.0 | 0.0 | 0.00 | 0.02 | 0.00 | 96 | 1014.7 |
| 20260902081503 | 69 | 0 | 0.0 | 0.0 | 0.00 | 0.02 | 0.00 | 96 | 1014.7 |
| 20260902081003 | 69 | 0 | 0.0 | 0.0 | 0.00 | 0.02 | 0.00 | 96 | 1014.7 |
| 20260902080503 | 69 | 0 | 0.0 | 0.0 | 0.00 | 0.02 | 0.00 | 96 | 1014.7 |
| 20260902080003 | 69 | 0 | 0.0 | 0.0 | 0.00 | 0.02 | 0.00 | 96 | 1014.8 |
| 20260902075717 | 69 | 0 | 0.0 | 0.0 | 0.00 | 0.02 | 0.00 | 96 | 1014.9 |
| 20260902075003 | 68 | 0 | 0.0 | 0.0 | 0.00 | 0.04 | 0.00 | 95 | 1014.7 |
| 20260902074503 | 69 | 0 | 0.0 | 0.0 | 0.00 | 0.04 | 0.00 | 95 | 1014.9 |
| 20260902074003 | 69 | 0 | 0.0 | 0.0 | 0.00 | 0.04 | 0.00 | 96 | 1014.9 |
| 20260902073503 | 69 | 0 | 0.0 | 0.0 | 0.00 | 0.04 | 0.00 | 96 | 1014.9 |
| 20260902073003 | 68 | 0 | 0.0 | 0.0 | 0.00 | 0.04 | 0.00 | 95 | 1014.9 |
| 20260902072503 | 69 | 0 | 0.0 | 0.0 | 0.00 | 0.04 | 0.00 | 95 | 1014.9 |
| 20260902072003 | 69 | 0 | 0.0 | 0.0 | 0.00 | 0.04 | 0.00 | 95 | 1015.0 |
| 20260902071503 | 69 | 0 | 0.0 | 0.0 | 0.00 | 0.04 | 0.00 | 95 | 1015.0 |
| 20260902071003 | 69 | 0 | 0.0 | 0.0 | 0.00 | 0.04 | 0.00 | 95 | 1015.1 |
| 20260902070503 | 69 | 0 | 0.0 | 0.0 | 0.00 | 0.04 | 0.00 | 95 | 1015.1 |
| 20260902070004 | 69 | 0 | 0.0 | 0.0 | 0.00 | 0.04 | 0.00 | 95 | 1015.2 |
| 20260902065503 | 69 | 0 | 0.0 | 0.0 | 0.00 | 0.04 | 0.00 | 95 | 1015.2 |
| 20260902065003 | 69 | 0 | 0.0 | 0.0 | 0.00 | 0.04 | 0.00 | 95 | 1015.2 |
| 20260902064503 | 69 | 0 | 0.0 | 0.0 | 0.00 | 0.04 | 0.00 | 95 | 1015.2 |
| 20260902064003 | 68 | 0 | 0.0 | 0.0 | 0.00 | 0.04 | 0.00 | 95 | 1015.2 |
| 20260902063503 | 68 | 0 | 0.0 | 0.0 | 0.00 | 0.04 | 0.00 | 95 | 1015.2 |
| 20260902063003 | 68 | 0 | 0.0 | 0.0 | 0.00 | 0.04 | 0.00 | 95 | 1015.2 |
| 20260902062503 | 68 | 0 | 0.0 | 0.0 | 0.00 | 0.04 | 0.00 | 95 | 1015.1 |
| 20260902062004 | 68 | 0 | 0.0 | 0.0 | 0.00 | 0.04 | 0.00 | 95 | 1015.1 |
| 20260902061503 | 68 | 0 | 0.0 | 0.0 | 0.00 | 0.04 | 0.00 | 95 | 1015.2 |
| 20260902061218 | 68 | 0 | 0.0 | 0.0 | 0.00 | 0.04 | 0.00 | 95 | 1015.2 |
| 20260902060508 | 69 | 0 | 0.0 | 0.0 | 0.00 | 0.04 | 0.00 | 95 | 1015.5 |
| 20260902060003 | 69 | 0 | 0.0 | 0.0 | 0.00 | 0.04 | 0.00 | 95 | 1015.5 |
| 20260902055503 | 69 | 0 | 0.0 | 0.0 | 0.00 | 0.04 | 0.00 | 95 | 1015.5 |
| 20260902055003 | 69 | 0 | 0.0 | 0.0 | 0.00 | 0.04 | 0.00 | 95 | 1015.5 |
| 20260902054503 | 69 | 0 | 0.0 | 0.0 | 0.00 | 0.04 | 0.00 | 95 | 1015.3 |
| 20260902054218 | 69 | 0 | 0.0 | 0.0 | 0.00 | 0.04 | 0.00 | 95 | 1015.3 |
| 20260902053503 | 69 | 0 | 0.0 | 0.0 | 0.00 | 0.04 | 0.00 | 95 | 1015.1 |
| 20260902053003 | 69 | 0 | 0.0 | 0.0 | 0.00 | 0.04 | 0.00 | 95 | 1015.3 |
| 20260902052503 | 69 | 0 | 0.0 | 0.0 | 0.00 | 0.04 | 0.00 | 95 | 1015.3 |
| 20260902052004 | 70 | 0 | 0.0 | 0.0 | 0.00 | 0.05 | 0.00 | 95 | 1015.4 |
| 20260902051718 | 70 | 0 | 0.0 | 0.0 | 0.00 | 0.05 | 0.00 | 95 | 1015.4 |
| 20260902051003 | 70 | 0 | 0.0 | 0.0 | 0.00 | 0.05 | 0.00 | 95 | 1015.5 |
| 20260902050504 | 70 | 0 | 0.0 | 0.0 | 0.00 | 0.05 | 0.00 | 95 | 1015.4 |
| 20260902050005 | 70 | 0 | 0.0 | 0.0 | 0.00 | 0.05 | 0.00 | 95 | 1015.2 |
| 20260902045503 | 70 | 0 | 0.0 | 0.0 | 0.00 | 0.05 | 0.00 | 95 | 1015.4 |
| 20260902045003 | 70 | 0 | 0.0 | 0.0 | 0.00 | 0.05 | 0.00 | 95 | 1015.4 |
| 20260902044505 | 70 | 0 | 0.0 | 0.0 | 0.00 | 0.05 | 0.00 | 95 | 1015.3 |
| 20260902044003 | 70 | 0 | 0.0 | 0.0 | 0.00 | 0.05 | 0.00 | 95 | 1015.4 |
| 20260902043503 | 70 | 0 | 0.0 | 0.0 | 0.00 | 0.05 | 0.00 | 95 | 1015.3 |
| 20260902043003 | 70 | 0 | 0.0 | 0.0 | 0.00 | 0.05 | 0.00 | 95 | 1015.3 |
| 20260902042503 | 71 | 0 | 0.0 | 0.0 | 0.00 | 0.05 | 0.00 | 95 | 1015.1 |
| 20260902042217 | 71 | 0 | 0.0 | 0.0 | 0.00 | 0.05 | 0.00 | 95 | 1015.2 |
| 20260902041503 | 71 | 0 | 0.0 | 0.0 | 0.00 | 0.05 | 0.00 | 95 | 1015.1 |
| 20260902041003 | 71 | 0 | 0.0 | 0.0 | 0.00 | 0.05 | 0.00 | 95 | 1015.0 |
| 20260902040503 | 71 | 0 | 0.0 | 0.0 | 0.00 | 0.05 | 0.00 | 95 | 1015.0 |
| 20260902040003 | 71 | 0 | 0.0 | 0.0 | 0.00 | 0.05 | 0.00 | 95 | 1015.1 |
| 20260902035503 | 71 | 0 | 0.0 | 0.0 | 0.00 | 0.05 | 0.05 | 95 | 1015.0 |
| 20260902035003 | 71 | 0 | 0.0 | 0.0 | 0.00 | 0.05 | 0.05 | 95 | 1015.0 |
| 20260902034503 | 71 | 0 | 0.0 | 0.0 | 0.00 | 0.05 | 0.05 | 95 | 1015.1 |
| 20260902034004 | 71 | 0 | 0.0 | 0.0 | 0.00 | 0.05 | 0.05 | 95 | 1015.0 |
| 20260902033503 | 71 | 0 | 0.0 | 0.0 | 0.00 | 0.05 | 0.05 | 95 | 1015.0 |
| 20260902033003 | 71 | 0 | 0.0 | 0.0 | 0.00 | 0.05 | 0.05 | 95 | 1015.0 |
| 20260902032503 | 71 | 0 | 0.0 | 0.0 | 0.00 | 0.05 | 0.05 | 95 | 1015.0 |
| 20260902032008 | 71 | 0 | 0.0 | 0.0 | 0.00 | 0.05 | 0.05 | 95 | 1015.0 |
| 20260902031503 | 71 | 0 | 0.0 | 0.0 | 0.00 | 0.05 | 0.05 | 95 | 1014.9 |
| 20260902031216 | 71 | 0 | 0.0 | 0.0 | 0.00 | 0.05 | 0.05 | 95 | 1014.9 |
| 20260902030503 | 71 | 0 | 0.0 | 0.0 | 0.00 | 0.05 | 0.05 | 94 | 1014.9 |
| 20260902030216 | 71 | 0 | 0.0 | 0.0 | 0.00 | 0.05 | 0.05 | 94 | 1014.9 |
| 20260902025503 | 71 | 0 | 0.0 | 0.0 | 0.00 | 0.05 | 0.05 | 94 | 1015.0 |
| 20260902025216 | 71 | 0 | 0.0 | 0.0 | 0.00 | 0.05 | 0.05 | 94 | 1015.0 |
| 20260902024503 | 71 | 0 | 0.0 | 0.0 | 0.00 | 0.05 | 0.05 | 94 | 1014.9 |
| 20260902024003 | 71 | 0 | 0.0 | 0.0 | 0.00 | 0.05 | 0.05 | 94 | 1015.0 |
| 20260902023503 | 71 | 0 | 0.0 | 0.0 | 0.00 | 0.05 | 0.05 | 94 | 1015.0 |
| 20260902023003 | 71 | 0 | 0.0 | 0.0 | 0.00 | 0.05 | 0.05 | 94 | 1015.0 |
| 20260902022503 | 71 | 0 | 0.0 | 0.0 | 0.00 | 0.05 | 0.05 | 94 | 1015.0 |
| 20260902022218 | 71 | 0 | 0.0 | 0.0 | 0.00 | 0.05 | 0.05 | 94 | 1015.1 |
| 20260902021503 | 72 | 0 | 0.0 | 0.0 | 0.00 | 0.05 | 0.05 | 94 | 1015.1 |
| 20260902021003 | 72 | 0 | 0.0 | 0.0 | 0.00 | 0.05 | 0.05 | 94 | 1015.0 |
| 20260902020503 | 72 | 0 | 0.0 | 0.0 | 0.00 | 0.05 | 0.05 | 94 | 1015.1 |
| 20260902020003 | 72 | 0 | 0.0 | 0.0 | 0.00 | 0.05 | 0.05 | 93 | 1015.1 |
| 20260902015503 | 72 | 0 | 0.0 | 0.0 | 0.00 | 0.05 | 0.05 | 93 | 1015.0 |
| 20260902015003 | 72 | 0 | 0.0 | 0.0 | 0.00 | 0.05 | 0.05 | 94 | 1015.0 |
| 20260902014503 | 72 | 0 | 0.0 | 0.0 | 0.00 | 0.06 | 0.05 | 93 | 1015.0 |
| 20260902014003 | 72 | 0 | 0.0 | 0.0 | 0.00 | 0.07 | 0.05 | 93 | 1015.0 |
| 20260902013717 | 72 | 0 | 0.0 | 0.0 | 0.00 | 0.07 | 0.05 | 93 | 1015.1 |
| 20260902013218 | 73 | 0 | 0.0 | 0.0 | 0.00 | 0.08 | 0.05 | 93 | 1015.0 |
| 20260902012503 | 73 | 0 | 0.0 | 0.0 | 0.00 | 0.09 | 0.05 | 93 | 1015.0 |
| 20260902012003 | 73 | 0 | 0.0 | 0.0 | 0.00 | 0.09 | 0.05 | 93 | 1014.9 |
| 20260902011503 | 73 | 0 | 0.0 | 0.0 | 0.00 | 0.09 | 0.05 | 93 | 1014.9 |
| 20260902011003 | 73 | 0 | 0.0 | 0.0 | 0.00 | 0.09 | 0.05 | 93 | 1014.8 |
| 20260902010508 | 73 | 0 | 0.0 | 0.0 | 0.00 | 0.09 | 0.05 | 93 | 1014.8 |
| 20260902010003 | 74 | 0 | 0.0 | 0.0 | 0.00 | 0.09 | 0.05 | 93 | 1014.7 |
| 20260902005503 | 74 | 0 | 0.0 | 0.0 | 0.00 | 0.09 | 0.05 | 92 | 1014.7 |
| 20260902005003 | 74 | 0 | 0.0 | 0.0 | 0.00 | 0.10 | 0.05 | 92 | 1014.6 |
| 20260902004503 | 74 | 0 | 0.0 | 0.0 | 0.00 | 0.10 | 0.05 | 92 | 1014.6 |
| 20260902004222 | 74 | 0 | 0.0 | 0.0 | 0.00 | 0.10 | 0.05 | 92 | 1014.5 |
| 20260902003503 | 74 | 0 | 0.0 | 0.0 | 0.00 | 0.10 | 0.05 | 92 | 1014.4 |
| 20260902003003 | 75 | 0 | 0.0 | 0.0 | 0.00 | 0.10 | 0.05 | 91 | 1014.3 |
| 20260902002503 | 75 | 0 | 0.0 | 0.0 | 0.00 | 0.10 | 0.05 | 91 | 1014.3 |
| 20260902002004 | 75 | 0 | 0.0 | 0.0 | 0.00 | 0.10 | 0.05 | 91 | 1014.2 |
| 20260902001503 | 76 | 0 | 0.0 | 0.0 | 0.00 | 0.10 | 0.05 | 91 | 1014.1 |
| 20260902001003 | 76 | 0 | 0.0 | 0.0 | 0.00 | 0.10 | 0.05 | 91 | 1014.1 |
| 20260902000503 | 76 | 0 | 0.0 | 0.0 | 0.00 | 0.10 | 0.05 | 90 | 1013.9 |
| 20260902000219 | 76 | 0 | 0.0 | 0.0 | 0.00 | 0.10 | 0.05 | 90 | 1013.9 |
| 20260901235503 | 76 | 0 | 0.0 | 0.0 | 0.00 | 0.10 | 0.05 | 90 | 1013.8 |
| 20260901235003 | 77 | 0 | 0.0 | 0.0 | 0.00 | 0.10 | 0.05 | 89 | 1013.8 |
| 20260901234503 | 77 | 0 | 0.0 | 0.0 | 0.00 | 0.10 | 0.05 | 89 | 1013.7 |
| 20260901234223 | 77 | 0 | 0.0 | 0.0 | 0.00 | 0.10 | 0.05 | 89 | 1013.8 |
| 20260901233503 | 78 | 0 | 0.0 | 0.0 | 0.00 | 0.10 | 0.05 | 89 | 1013.7 |
| 20260901233217 | 78 | 0 | 0.0 | 0.0 | 0.00 | 0.10 | 0.05 | 88 | 1013.7 |
| 20260901232503 | 78 | 0 | 0.0 | 0.0 | 0.00 | 0.10 | 0.05 | 88 | 1013.7 |
| 20260901232217 | 78 | 0 | 0.0 | 0.0 | 0.00 | 0.10 | 0.05 | 88 | 1013.8 |
| 20260901231503 | 78 | 0 | 0.0 | 0.0 | 0.00 | 0.10 | 0.05 | 88 | 1014.0 |
| 20260901231003 | 78 | 195 | 0.0 | 1.0 | 0.00 | 0.10 | 0.05 | 88 | 1014.0 |
| 20260901230504 | 79 | 187 | 0.0 | 1.0 | 0.00 | 0.10 | 0.05 | 88 | 1014.0 |
| 20260901230217 | 79 | 187 | 0.0 | 1.0 | 0.00 | 0.10 | 0.05 | 88 | 1014.1 |
| 20260901225503 | 79 | 0 | 0.0 | 0.0 | 0.00 | 0.10 | 0.05 | 88 | 1014.1 |
| 20260901225003 | 79 | 0 | 0.0 | 0.0 | 0.00 | 0.10 | 0.05 | 88 | 1014.1 |
| 20260901224503 | 79 | 172 | 0.0 | 1.0 | 0.00 | 0.10 | 0.05 | 88 | 1014.2 |
| 20260901224003 | 79 | 172 | 0.0 | 1.0 | 0.00 | 0.10 | 0.05 | 87 | 1014.2 |
| 20260901223503 | 79 | 0 | 0.0 | 0.0 | 0.00 | 0.10 | 0.05 | 87 | 1014.3 |
| 20260901223003 | 80 | 0 | 0.0 | 0.0 | 0.00 | 0.10 | 0.05 | 87 | 1014.3 |
| 20260901222503 | 80 | 209 | 0.0 | 1.0 | 0.00 | 0.10 | 0.05 | 87 | 1014.3 |
| 20260901222003 | 80 | 214 | 0.0 | 2.0 | 0.00 | 0.10 | 0.05 | 87 | 1014.2 |
| 20260901221503 | 80 | 215 | 0.0 | 2.0 | 0.00 | 0.10 | 0.05 | 86 | 1014.2 |
| 20260901221003 | 80 | 225 | 0.0 | 2.0 | 0.00 | 0.10 | 0.05 | 86 | 1014.2 |
| 20260901220718 | 80 | 231 | 0.0 | 2.0 | 0.00 | 0.10 | 0.05 | 85 | 1014.2 |
| 20260901220003 | 80 | 328 | 0.0 | 1.0 | 0.00 | 0.10 | 0.05 | 86 | 1014.2 |
| 20260901215718 | 80 | 328 | 0.0 | 1.0 | 0.00 | 0.10 | 0.05 | 86 | 1014.2 |
| 20260901215003 | 81 | 0 | 0.0 | 0.0 | 0.00 | 0.10 | 0.05 | 87 | 1014.3 |
| 20260901214503 | 81 | 52 | 0.0 | 1.0 | 0.00 | 0.10 | 0.05 | 86 | 1014.2 |
| 20260901214003 | 81 | 65 | 0.0 | 1.0 | 0.00 | 0.10 | 0.05 | 86 | 1014.3 |
| 20260901213503 | 81 | 182 | 0.0 | 1.0 | 0.00 | 0.10 | 0.05 | 86 | 1014.2 |
| 20260901213003 | 81 | 182 | 0.0 | 1.0 | 0.00 | 0.10 | 0.05 | 86 | 1014.3 |
| 20260901212718 | 81 | 182 | 0.0 | 1.0 | 0.00 | 0.10 | 0.05 | 86 | 1014.3 |
| 20260901212003 | 81 | 182 | 0.0 | 1.0 | 0.00 | 0.10 | 0.05 | 85 | 1014.1 |
| 20260901211717 | 81 | 182 | 0.0 | 1.0 | 0.00 | 0.10 | 0.05 | 85 | 1014.1 |
| 20260901211003 | 81 | 181 | 0.0 | 2.0 | 0.00 | 0.10 | 0.05 | 85 | 1014.1 |
| 20260901210503 | 81 | 211 | 0.0 | 2.0 | 0.00 | 0.10 | 0.05 | 85 | 1014.1 |
| 20260901210003 | 81 | 228 | 0.0 | 2.0 | 0.00 | 0.10 | 0.05 | 85 | 1014.1 |
| 20260901205503 | 81 | 222 | 0.0 | 2.0 | 0.00 | 0.10 | 0.05 | 84 | 1014.2 |
| 20260901205218 | 81 | 221 | 0.0 | 2.0 | 0.00 | 0.10 | 0.05 | 84 | 1014.1 |
| 20260901204503 | 81 | 202 | 0.0 | 2.0 | 0.00 | 0.10 | 0.05 | 85 | 1014.2 |
| 20260901204003 | 81 | 204 | 0.0 | 4.0 | 0.00 | 0.10 | 0.05 | 86 | 1014.2 |
| 20260901203717 | 81 | 207 | 0.0 | 4.0 | 0.00 | 0.10 | 0.05 | 85 | 1014.2 |
| 20260901203003 | 81 | 223 | 0.0 | 1.0 | 0.00 | 0.10 | 0.05 | 88 | 1014.2 |
| 20260901202503 | 80 | 223 | 0.0 | 2.0 | 0.00 | 0.10 | 0.05 | 89 | 1014.1 |
| 20260901202003 | 80 | 223 | 0.0 | 2.0 | 0.00 | 0.10 | 0.05 | 87 | 1014.1 |
| 20260901201503 | 80 | 223 | 0.0 | 1.0 | 0.00 | 0.10 | 0.05 | 90 | 1014.3 |
| 20260901201003 | 80 | 0 | 0.0 | 0.0 | 0.00 | 0.10 | 0.05 | 90 | 1014.2 |
| 20260901200504 | 79 | 0 | 0.0 | 0.0 | 0.00 | 0.10 | 0.05 | 89 | 1014.2 |
| 20260901200003 | 79 | 0 | 0.0 | 0.0 | 0.00 | 0.10 | 0.05 | 89 | 1014.2 |
| 20260901195503 | 79 | 0 | 0.0 | 0.0 | 0.00 | 0.10 | 0.05 | 89 | 1014.3 |
| 20260901195003 | 79 | 0 | 0.0 | 0.0 | 0.00 | 0.10 | 0.05 | 89 | 1014.3 |
| 20260901194503 | 79 | 223 | 0.0 | 1.0 | 0.00 | 0.10 | 0.05 | 89 | 1014.3 |
| 20260901194003 | 79 | 223 | 0.0 | 1.0 | 0.00 | 0.10 | 0.05 | 89 | 1014.3 |
| 20260901193503 | 80 | 223 | 0.0 | 1.0 | 0.00 | 0.10 | 0.05 | 89 | 1014.2 |
| 20260901193003 | 80 | 223 | 0.0 | 1.0 | 0.00 | 0.11 | 0.05 | 89 | 1014.2 |
| 20260901192503 | 80 | 223 | 0.0 | 1.0 | 0.00 | 0.11 | 0.05 | 89 | 1014.2 |
| 20260901192003 | 80 | 223 | 0.0 | 1.0 | 0.00 | 0.11 | 0.05 | 90 | 1014.3 |
| 20260901191503 | 80 | 223 | 0.0 | 1.0 | 0.00 | 0.12 | 0.05 | 89 | 1014.4 |
| 20260901191003 | 80 | 0 | 0.0 | 0.0 | 0.00 | 0.12 | 0.05 | 89 | 1014.3 |
| 20260901190503 | 80 | 0 | 0.0 | 0.0 | 0.00 | 0.12 | 0.05 | 88 | 1014.3 |
| 20260901190003 | 80 | 223 | 0.0 | 1.0 | 0.00 | 0.12 | 0.05 | 89 | 1014.2 |
| 20260901185503 | 80 | 223 | 0.0 | 1.0 | 0.00 | 0.12 | 0.05 | 87 | 1014.4 |
| 20260901185003 | 80 | 223 | 0.0 | 2.0 | 0.00 | 0.12 | 0.05 | 86 | 1014.3 |
| 20260901184503 | 81 | 227 | 0.0 | 2.0 | 0.00 | 0.12 | 0.05 | 85 | 1014.3 |
| 20260901184003 | 81 | 234 | 0.0 | 1.0 | 0.00 | 0.12 | 0.05 | 86 | 1014.3 |
| 20260901183503 | 81 | 241 | 0.0 | 2.0 | 0.00 | 0.12 | 0.05 | 86 | 1014.4 |
| 20260901183217 | 81 | 253 | 0.0 | 2.0 | 0.00 | 0.12 | 0.05 | 85 | 1014.5 |
| 20260901182718 | 81 | 288 | 0.0 | 2.0 | 0.00 | 0.12 | 0.05 | 84 | 1014.4 |
| 20260901182217 | 81 | 298 | 0.0 | 1.0 | 0.00 | 0.12 | 0.05 | 87 | 1014.4 |
| 20260901181718 | 81 | 285 | 0.0 | 1.0 | 0.00 | 0.12 | 0.05 | 87 | 1014.3 |
| 20260901181003 | 80 | 205 | 0.0 | 1.0 | 0.00 | 0.12 | 0.05 | 88 | 1014.3 |
| 20260901180718 | 80 | 205 | 0.0 | 1.0 | 0.00 | 0.12 | 0.05 | 88 | 1014.3 |
| 20260901180003 | 80 | 205 | 0.0 | 1.0 | 0.00 | 0.13 | 0.05 | 88 | 1014.2 |
| 20260901175718 | 80 | 205 | 0.0 | 1.0 | 0.00 | 0.13 | 0.05 | 89 | 1014.2 |
| 20260901175003 | 80 | 0 | 0.0 | 0.0 | 0.00 | 0.14 | 0.05 | 88 | 1014.3 |
| 20260901174503 | 80 | 0 | 0.0 | 0.0 | 0.00 | 0.14 | 0.05 | 88 | 1014.1 |
| 20260901174003 | 80 | 205 | 0.0 | 2.0 | 0.00 | 0.14 | 0.05 | 88 | 1014.0 |